This is the latest recevied weather packets stored in our database for station/object KC3ROS. If no packets are shown the sender has not sent any weather packets the latest 10 day(s).
| Time | Temp. | Humidity | Pressure | Rain* | Wind** | Luminosity | Snow |
|---|---|---|---|---|---|---|---|
| 1778203125 | 10° C | 59% | 1011.7 hPa | 0 mm | - | 0 W/m² | - |
| 1778202822 | 10° C | 58% | 1011.8 hPa | 0 mm | - | 0 W/m² | - |
| 1778202519 | 10° C | 57% | 1011.7 hPa | 0 mm | - | 0 W/m² | - |
| 1778202216 | 10.56° C | 56% | 1011.3 hPa | 0 mm | - | 0 W/m² | - |
| 1778201913 | 10.56° C | 55% | 1011.3 hPa | 0 mm | - | 0 W/m² | - |
| 1778201610 | 10.56° C | 56% | 1011.1 hPa | 0 mm | - | 0 W/m² | - |
| 1778201306 | 10.56° C | 54% | 1011.3 hPa | 0 mm | - | 0 W/m² | - |
| 1778201002 | 10.56° C | 53% | 1011.1 hPa | 0 mm | - | 0 W/m² | - |
| 1778200699 | 11.11° C | 52% | 1011.1 hPa | 0 mm | - | 0 W/m² | - |
| 1778200397 | 11.11° C | 51% | 1011.1 hPa | 0 mm | - | 0 W/m² | - |
| 1778200093 | 11.11° C | 50% | 1011.1 hPa | 0 mm | - | 1 W/m² | - |
| 1778199790 | 11.11° C | 49% | 1010.8 hPa | 0 mm | - | 2 W/m² | - |
| 1778199486 | 11.67° C | 49% | 1010.7 hPa | 0 mm | - | 3 W/m² | - |
| 1778199182 | 11.67° C | 50% | 1010.7 hPa | 0 mm | - | 5 W/m² | - |
| 1778198878 | 11.67° C | 49% | 1010.6 hPa | 0 mm | - | 7 W/m² | - |
| 1778198575 | 11.67° C | 48% | 1010.4 hPa | 0 mm | - | 9 W/m² | - |
| 1778198272 | 12.22° C | 49% | 1010.4 hPa | 0 mm | - | 13 W/m² | - |
| 1778197969 | 12.22° C | 49% | 1010.4 hPa | 0 mm | - | 21 W/m² | - |
| 1778197666 | 12.22° C | 45% | 1010.3 hPa | 0 mm | - | 24 W/m² | - |
| 1778197363 | 12.78° C | 45% | 1010.4 hPa | 0 mm | - | 30 W/m² | - |
| 1778197059 | 12.78° C | 45% | 1010.2 hPa | 0 mm | - | 30 W/m² | - |
| 1778196757 | 12.78° C | 46% | 1010.1 hPa | 0 mm | - | 34 W/m² | - |
| 1778196454 | 12.78° C | 46% | 1010.2 hPa | 0 mm | - | 41 W/m² | - |
| 1778196151 | 12.78° C | 47% | 1009.9 hPa | 0 mm | - | 31 W/m² | - |
| 1778195848 | 12.78° C | 46% | 1010.1 hPa | 0 mm | - | 40 W/m² | - |
* Rain latest hour (hover to see other rain measurements)
** Current wind speed in m/s (hover to see current wind gust speed)